sensor_id;sensor_type;location;lat;lon;timestamp;P1;durP1;ratioP1;P2;durP2;ratioP2
19089;SDS011;9677;50.656;13.064;2022-10-31T00:01:37;11.70;;;10.50;;
19089;SDS011;9677;50.656;13.064;2022-10-31T00:04:06;11.83;;;10.63;;
19089;SDS011;9677;50.656;13.064;2022-10-31T00:06:35;13.50;;;11.20;;
19089;SDS011;9677;50.656;13.064;2022-10-31T00:09:05;11.97;;;10.77;;
19089;SDS011;9677;50.656;13.064;2022-10-31T00:11:34;11.60;;;10.50;;
19089;SDS011;9677;50.656;13.064;2022-10-31T00:14:03;11.87;;;10.67;;
19089;SDS011;9677;50.656;13.064;2022-10-31T00:16:32;11.30;;;10.10;;
19089;SDS011;9677;50.656;13.064;2022-10-31T00:19:02;11.50;;;10.30;;
19089;SDS011;9677;50.656;13.064;2022-10-31T00:21:33;11.63;;;10.50;;
19089;SDS011;9677;50.656;13.064;2022-10-31T00:24:03;11.27;;;10.17;;
19089;SDS011;9677;50.656;13.064;2022-10-31T00:26:34;11.27;;;10.17;;
19089;SDS011;9677;50.656;13.064;2022-10-31T00:29:02;10.83;;;9.80;;
19089;SDS011;9677;50.656;13.064;2022-10-31T00:31:31;11.40;;;10.30;;
19089;SDS011;9677;50.656;13.064;2022-10-31T00:33:59;11.30;;;10.20;;
19089;SDS011;9677;50.656;13.064;2022-10-31T00:36:30;11.43;;;10.37;;
19089;SDS011;9677;50.656;13.064;2022-10-31T00:38:58;12.17;;;10.43;;
19089;SDS011;9677;50.656;13.064;2022-10-31T00:41:29;11.37;;;10.27;;
19089;SDS011;9677;50.656;13.064;2022-10-31T00:43:57;12.03;;;10.40;;
19089;SDS011;9677;50.656;13.064;2022-10-31T00:46:26;11.07;;;9.93;;
19089;SDS011;9677;50.656;13.064;2022-10-31T00:48:54;12.23;;;10.23;;
19089;SDS011;9677;50.656;13.064;2022-10-31T00:51:23;10.93;;;9.93;;
19089;SDS011;9677;50.656;13.064;2022-10-31T00:53:52;11.50;;;10.30;;
19089;SDS011;9677;50.656;13.064;2022-10-31T00:56:20;11.43;;;10.30;;
19089;SDS011;9677;50.656;13.064;2022-10-31T00:58:50;11.73;;;10.53;;
19089;SDS011;9677;50.656;13.064;2022-10-31T01:01:19;11.13;;;10.13;;
19089;SDS011;9677;50.656;13.064;2022-10-31T01:03:48;10.90;;;9.90;;
19089;SDS011;9677;50.656;13.064;2022-10-31T01:06:17;12.67;;;10.47;;
19089;SDS011;9677;50.656;13.064;2022-10-31T01:08:46;10.93;;;9.90;;
19089;SDS011;9677;50.656;13.064;2022-10-31T01:11:17;11.20;;;9.93;;
19089;SDS011;9677;50.656;13.064;2022-10-31T01:13:51;11.40;;;10.20;;
19089;SDS011;9677;50.656;13.064;2022-10-31T01:16:22;11.50;;;10.40;;
19089;SDS011;9677;50.656;13.064;2022-10-31T01:18:52;11.67;;;10.50;;
19089;SDS011;9677;50.656;13.064;2022-10-31T01:21:21;11.93;;;10.83;;
19089;SDS011;9677;50.656;13.064;2022-10-31T01:23:52;10.63;;;9.63;;
19089;SDS011;9677;50.656;13.064;2022-10-31T01:26:23;10.87;;;9.87;;
19089;SDS011;9677;50.656;13.064;2022-10-31T01:28:55;11.67;;;10.10;;
19089;SDS011;9677;50.656;13.064;2022-10-31T01:31:29;11.03;;;9.93;;
19089;SDS011;9677;50.656;13.064;2022-10-31T01:33:59;10.63;;;9.63;;
19089;SDS011;9677;50.656;13.064;2022-10-31T01:36:29;11.60;;;10.43;;
19089;SDS011;9677;50.656;13.064;2022-10-31T01:39:00;11.20;;;10.00;;
19089;SDS011;9677;50.656;13.064;2022-10-31T01:41:31;11.73;;;10.53;;
19089;SDS011;9677;50.656;13.064;2022-10-31T01:47:35;10.97;;;9.97;;
19089;SDS011;9677;50.656;13.064;2022-10-31T01:50:24;11.93;;;10.23;;
19089;SDS011;9677;50.656;13.064;2022-10-31T01:52:58;11.00;;;10.00;;
19089;SDS011;9677;50.656;13.064;2022-10-31T01:55:29;10.87;;;9.87;;
19089;SDS011;9677;50.656;13.064;2022-10-31T01:58:02;11.50;;;10.40;;
19089;SDS011;9677;50.656;13.064;2022-10-31T02:00:37;10.33;;;9.33;;
19089;SDS011;9677;50.656;13.064;2022-10-31T02:03:08;11.77;;;10.20;;
19089;SDS011;9677;50.656;13.064;2022-10-31T02:05:37;11.23;;;10.13;;
19089;SDS011;9677;50.656;13.064;2022-10-31T02:08:07;11.93;;;10.77;;
19089;SDS011;9677;50.656;13.064;2022-10-31T02:10:42;11.10;;;10.00;;
19089;SDS011;9677;50.656;13.064;2022-10-31T02:13:11;11.57;;;10.47;;
19089;SDS011;9677;50.656;13.064;2022-10-31T02:15:49;11.73;;;10.60;;
19089;SDS011;9677;50.656;13.064;2022-10-31T02:18:22;10.97;;;9.97;;
19089;SDS011;9677;50.656;13.064;2022-10-31T02:20:57;11.17;;;10.10;;
19089;SDS011;9677;50.656;13.064;2022-10-31T02:26:43;11.03;;;10.03;;
19089;SDS011;9677;50.656;13.064;2022-10-31T02:29:35;11.70;;;10.50;;
19089;SDS011;9677;50.656;13.064;2022-10-31T02:32:27;10.70;;;9.63;;
19089;SDS011;9677;50.656;13.064;2022-10-31T02:35:08;11.33;;;10.20;;
19089;SDS011;9677;50.656;13.064;2022-10-31T02:37:43;11.37;;;10.27;;
19089;SDS011;9677;50.656;13.064;2022-10-31T02:40:17;10.90;;;9.90;;
19089;SDS011;9677;50.656;13.064;2022-10-31T02:43:17;11.23;;;10.23;;
19089;SDS011;9677;50.656;13.064;2022-10-31T02:45:50;11.67;;;10.57;;
19089;SDS011;9677;50.656;13.064;2022-10-31T02:48:28;11.13;;;10.13;;
19089;SDS011;9677;50.656;13.064;2022-10-31T02:51:02;11.40;;;10.30;;
19089;SDS011;9677;50.656;13.064;2022-10-31T02:53:35;11.20;;;10.10;;
19089;SDS011;9677;50.656;13.064;2022-10-31T02:56:08;11.10;;;10.10;;
19089;SDS011;9677;50.656;13.064;2022-10-31T02:58:44;11.20;;;10.10;;
19089;SDS011;9677;50.656;13.064;2022-10-31T03:04:40;11.10;;;10.00;;
19089;SDS011;9677;50.656;13.064;2022-10-31T03:07:37;11.60;;;10.50;;
19089;SDS011;9677;50.656;13.064;2022-10-31T03:10:17;11.20;;;10.20;;
19089;SDS011;9677;50.656;13.064;2022-10-31T03:13:01;10.97;;;9.87;;
19089;SDS011;9677;50.656;13.064;2022-10-31T03:15:37;10.97;;;9.97;;
19089;SDS011;9677;50.656;13.064;2022-10-31T03:18:12;11.23;;;10.13;;
19089;SDS011;9677;50.656;13.064;2022-10-31T03:20:49;10.80;;;9.80;;
19089;SDS011;9677;50.656;13.064;2022-10-31T03:23:23;11.13;;;10.07;;
19089;SDS011;9677;50.656;13.064;2022-10-31T03:25:54;11.90;;;10.10;;
19089;SDS011;9677;50.656;13.064;2022-10-31T03:28:26;11.53;;;10.00;;
19089;SDS011;9677;50.656;13.064;2022-10-31T03:31:05;11.10;;;10.10;;
19089;SDS011;9677;50.656;13.064;2022-10-31T03:33:38;10.60;;;9.67;;
19089;SDS011;9677;50.656;13.064;2022-10-31T03:36:11;10.67;;;9.67;;
19089;SDS011;9677;50.656;13.064;2022-10-31T03:38:43;11.37;;;10.27;;
19089;SDS011;9677;50.656;13.064;2022-10-31T03:41:17;11.10;;;10.00;;
19089;SDS011;9677;50.656;13.064;2022-10-31T03:43:52;11.90;;;10.70;;
19089;SDS011;9677;50.656;13.064;2022-10-31T03:46:26;11.30;;;10.20;;
19089;SDS011;9677;50.656;13.064;2022-10-31T03:48:56;10.80;;;9.80;;
19089;SDS011;9677;50.656;13.064;2022-10-31T03:51:29;11.10;;;10.10;;
19089;SDS011;9677;50.656;13.064;2022-10-31T03:54:08;11.40;;;10.30;;
19089;SDS011;9677;50.656;13.064;2022-10-31T03:56:45;11.47;;;10.30;;
19089;SDS011;9677;50.656;13.064;2022-10-31T03:59:23;11.20;;;10.20;;
19089;SDS011;9677;50.656;13.064;2022-10-31T04:01:57;11.07;;;10.07;;
19089;SDS011;9677;50.656;13.064;2022-10-31T04:04:30;11.17;;;10.17;;
19089;SDS011;9677;50.656;13.064;2022-10-31T04:07:01;12.80;;;9.90;;
19089;SDS011;9677;50.656;13.064;2022-10-31T04:09:35;10.90;;;9.90;;
19089;SDS011;9677;50.656;13.064;2022-10-31T04:12:07;11.97;;;10.87;;
19089;SDS011;9677;50.656;13.064;2022-10-31T04:15:09;10.70;;;9.70;;
19089;SDS011;9677;50.656;13.064;2022-10-31T04:17:40;11.57;;;10.37;;
19089;SDS011;9677;50.656;13.064;2022-10-31T04:20:13;11.63;;;10.53;;
19089;SDS011;9677;50.656;13.064;2022-10-31T04:22:45;11.30;;;10.20;;
19089;SDS011;9677;50.656;13.064;2022-10-31T04:25:13;11.37;;;10.27;;
19089;SDS011;9677;50.656;13.064;2022-10-31T04:27:42;10.93;;;9.80;;
19089;SDS011;9677;50.656;13.064;2022-10-31T04:30:11;11.50;;;10.30;;
19089;SDS011;9677;50.656;13.064;2022-10-31T04:32:40;11.80;;;10.70;;
19089;SDS011;9677;50.656;13.064;2022-10-31T04:35:08;10.93;;;9.93;;
19089;SDS011;9677;50.656;13.064;2022-10-31T04:37:37;11.10;;;10.00;;
19089;SDS011;9677;50.656;13.064;2022-10-31T04:40:08;12.10;;;10.40;;
19089;SDS011;9677;50.656;13.064;2022-10-31T04:43:01;14.90;;;10.00;;
19089;SDS011;9677;50.656;13.064;2022-10-31T04:45:31;11.17;;;10.10;;
19089;SDS011;9677;50.656;13.064;2022-10-31T04:47:59;10.93;;;9.93;;
19089;SDS011;9677;50.656;13.064;2022-10-31T04:50:32;11.50;;;10.50;;
19089;SDS011;9677;50.656;13.064;2022-10-31T04:53:01;11.47;;;10.37;;
19089;SDS011;9677;50.656;13.064;2022-10-31T04:55:38;10.90;;;9.90;;
19089;SDS011;9677;50.656;13.064;2022-10-31T04:58:18;11.23;;;10.13;;
19089;SDS011;9677;50.656;13.064;2022-10-31T05:00:50;11.00;;;10.00;;
19089;SDS011;9677;50.656;13.064;2022-10-31T05:03:20;11.83;;;10.13;;
19089;SDS011;9677;50.656;13.064;2022-10-31T05:05:49;11.07;;;9.97;;
19089;SDS011;9677;50.656;13.064;2022-10-31T05:08:18;11.20;;;10.10;;
19089;SDS011;9677;50.656;13.064;2022-10-31T05:10:51;11.10;;;10.10;;
19089;SDS011;9677;50.656;13.064;2022-10-31T05:13:20;11.53;;;10.40;;
19089;SDS011;9677;50.656;13.064;2022-10-31T05:16:15;11.90;;;10.50;;
19089;SDS011;9677;50.656;13.064;2022-10-31T05:19:02;11.17;;;10.17;;
19089;SDS011;9677;50.656;13.064;2022-10-31T05:21:50;11.00;;;10.00;;
19089;SDS011;9677;50.656;13.064;2022-10-31T05:24:19;10.80;;;9.80;;
19089;SDS011;9677;50.656;13.064;2022-10-31T05:26:49;11.67;;;10.40;;
19089;SDS011;9677;50.656;13.064;2022-10-31T05:29:18;10.80;;;9.77;;
19089;SDS011;9677;50.656;13.064;2022-10-31T05:31:47;11.83;;;10.73;;
19089;SDS011;9677;50.656;13.064;2022-10-31T05:34:51;11.60;;;10.50;;
19089;SDS011;9677;50.656;13.064;2022-10-31T05:37:45;12.43;;;10.33;;
19089;SDS011;9677;50.656;13.064;2022-10-31T05:40:15;11.40;;;10.40;;
19089;SDS011;9677;50.656;13.064;2022-10-31T05:42:50;10.60;;;9.60;;
19089;SDS011;9677;50.656;13.064;2022-10-31T05:45:21;11.00;;;10.00;;
19089;SDS011;9677;50.656;13.064;2022-10-31T05:47:56;11.17;;;10.07;;
19089;SDS011;9677;50.656;13.064;2022-10-31T05:50:46;11.37;;;10.33;;
19089;SDS011;9677;50.656;13.064;2022-10-31T05:53:16;11.17;;;10.17;;
19089;SDS011;9677;50.656;13.064;2022-10-31T05:55:44;11.70;;;10.60;;
19089;SDS011;9677;50.656;13.064;2022-10-31T05:58:19;11.03;;;9.93;;
19089;SDS011;9677;50.656;13.064;2022-10-31T06:01:01;11.00;;;9.90;;
19089;SDS011;9677;50.656;13.064;2022-10-31T06:03:32;10.70;;;9.80;;
19089;SDS011;9677;50.656;13.064;2022-10-31T06:06:02;10.60;;;9.63;;
19089;SDS011;9677;50.656;13.064;2022-10-31T06:08:37;11.37;;;10.37;;
19089;SDS011;9677;50.656;13.064;2022-10-31T06:11:11;11.47;;;10.37;;
19089;SDS011;9677;50.656;13.064;2022-10-31T06:14:04;11.00;;;10.00;;
19089;SDS011;9677;50.656;13.064;2022-10-31T06:16:53;11.93;;;10.27;;
19089;SDS011;9677;50.656;13.064;2022-10-31T06:19:46;11.33;;;10.37;;
19089;SDS011;9677;50.656;13.064;2022-10-31T06:22:19;10.80;;;9.80;;
19089;SDS011;9677;50.656;13.064;2022-10-31T06:24:48;10.70;;;9.80;;
19089;SDS011;9677;50.656;13.064;2022-10-31T06:27:28;10.50;;;9.60;;
19089;SDS011;9677;50.656;13.064;2022-10-31T06:30:04;11.17;;;9.97;;
19089;SDS011;9677;50.656;13.064;2022-10-31T06:32:35;11.30;;;10.30;;
19089;SDS011;9677;50.656;13.064;2022-10-31T06:35:04;11.13;;;10.00;;
19089;SDS011;9677;50.656;13.064;2022-10-31T06:37:34;11.17;;;10.07;;
19089;SDS011;9677;50.656;13.064;2022-10-31T06:40:16;10.80;;;9.80;;
19089;SDS011;9677;50.656;13.064;2022-10-31T06:43:04;10.90;;;9.80;;
19089;SDS011;9677;50.656;13.064;2022-10-31T06:45:35;11.17;;;10.10;;
19089;SDS011;9677;50.656;13.064;2022-10-31T06:48:29;11.00;;;10.00;;
19089;SDS011;9677;50.656;13.064;2022-10-31T06:51:15;10.80;;;9.80;;
19089;SDS011;9677;50.656;13.064;2022-10-31T06:53:43;11.37;;;10.00;;
19089;SDS011;9677;50.656;13.064;2022-10-31T06:56:15;11.27;;;10.27;;
19089;SDS011;9677;50.656;13.064;2022-10-31T06:58:47;10.83;;;9.83;;
19089;SDS011;9677;50.656;13.064;2022-10-31T07:01:25;10.77;;;9.77;;
19089;SDS011;9677;50.656;13.064;2022-10-31T07:03:54;10.67;;;9.63;;
19089;SDS011;9677;50.656;13.064;2022-10-31T07:06:22;10.90;;;9.80;;
19089;SDS011;9677;50.656;13.064;2022-10-31T07:08:52;10.90;;;9.90;;
19089;SDS011;9677;50.656;13.064;2022-10-31T07:11:22;10.70;;;9.80;;
19089;SDS011;9677;50.656;13.064;2022-10-31T07:13:50;10.80;;;9.90;;
19089;SDS011;9677;50.656;13.064;2022-10-31T07:16:19;10.90;;;9.93;;
19089;SDS011;9677;50.656;13.064;2022-10-31T07:18:49;11.10;;;10.10;;
19089;SDS011;9677;50.656;13.064;2022-10-31T07:21:17;10.80;;;9.60;;
19089;SDS011;9677;50.656;13.064;2022-10-31T07:23:47;10.83;;;9.80;;
19089;SDS011;9677;50.656;13.064;2022-10-31T07:26:34;11.00;;;10.07;;
19089;SDS011;9677;50.656;13.064;2022-10-31T07:29:03;10.67;;;9.70;;
19089;SDS011;9677;50.656;13.064;2022-10-31T07:31:32;11.10;;;9.80;;
19089;SDS011;9677;50.656;13.064;2022-10-31T07:34:09;11.13;;;10.23;;
19089;SDS011;9677;50.656;13.064;2022-10-31T07:36:56;11.17;;;10.17;;
19089;SDS011;9677;50.656;13.064;2022-10-31T07:39:25;10.70;;;9.70;;
19089;SDS011;9677;50.656;13.064;2022-10-31T07:41:54;11.00;;;10.00;;
19089;SDS011;9677;50.656;13.064;2022-10-31T07:44:26;10.70;;;9.70;;
19089;SDS011;9677;50.656;13.064;2022-10-31T07:47:13;10.40;;;9.40;;
19089;SDS011;9677;50.656;13.064;2022-10-31T07:50:03;10.60;;;9.70;;
19089;SDS011;9677;50.656;13.064;2022-10-31T07:52:59;10.60;;;9.70;;
19089;SDS011;9677;50.656;13.064;2022-10-31T07:55:44;11.17;;;10.17;;
19089;SDS011;9677;50.656;13.064;2022-10-31T07:58:13;10.80;;;9.90;;
19089;SDS011;9677;50.656;13.064;2022-10-31T08:00:44;10.40;;;9.50;;
19089;SDS011;9677;50.656;13.064;2022-10-31T08:03:23;10.50;;;9.60;;
19089;SDS011;9677;50.656;13.064;2022-10-31T08:05:53;11.13;;;10.13;;
19089;SDS011;9677;50.656;13.064;2022-10-31T08:09:01;10.93;;;9.90;;
19089;SDS011;9677;50.656;13.064;2022-10-31T08:11:30;10.63;;;9.70;;
19089;SDS011;9677;50.656;13.064;2022-10-31T08:14:00;11.20;;;10.20;;
19089;SDS011;9677;50.656;13.064;2022-10-31T08:16:29;11.27;;;9.87;;
19089;SDS011;9677;50.656;13.064;2022-10-31T08:19:01;10.70;;;9.70;;
19089;SDS011;9677;50.656;13.064;2022-10-31T08:21:36;10.73;;;9.67;;
19089;SDS011;9677;50.656;13.064;2022-10-31T08:24:07;10.30;;;9.30;;
19089;SDS011;9677;50.656;13.064;2022-10-31T08:26:36;10.60;;;9.70;;
19089;SDS011;9677;50.656;13.064;2022-10-31T08:29:07;11.20;;;10.20;;
19089;SDS011;9677;50.656;13.064;2022-10-31T08:31:37;10.43;;;9.53;;
19089;SDS011;9677;50.656;13.064;2022-10-31T08:34:40;10.47;;;9.50;;
19089;SDS011;9677;50.656;13.064;2022-10-31T08:37:29;10.50;;;9.50;;
19089;SDS011;9677;50.656;13.064;2022-10-31T08:39:57;10.63;;;9.63;;
19089;SDS011;9677;50.656;13.064;2022-10-31T08:42:26;10.10;;;9.20;;
19089;SDS011;9677;50.656;13.064;2022-10-31T08:44:55;10.57;;;9.57;;
19089;SDS011;9677;50.656;13.064;2022-10-31T08:47:23;11.67;;;10.00;;
19089;SDS011;9677;50.656;13.064;2022-10-31T08:49:52;10.93;;;9.93;;
19089;SDS011;9677;50.656;13.064;2022-10-31T08:52:22;10.53;;;9.43;;
19089;SDS011;9677;50.656;13.064;2022-10-31T08:55:14;10.83;;;9.83;;
19089;SDS011;9677;50.656;13.064;2022-10-31T08:58:03;10.90;;;9.80;;
19089;SDS011;9677;50.656;13.064;2022-10-31T09:00:39;10.87;;;9.77;;
19089;SDS011;9677;50.656;13.064;2022-10-31T09:03:15;11.07;;;9.97;;
19089;SDS011;9677;50.656;13.064;2022-10-31T09:05:45;10.87;;;9.77;;
19089;SDS011;9677;50.656;13.064;2022-10-31T09:08:14;10.77;;;9.73;;
19089;SDS011;9677;50.656;13.064;2022-10-31T09:10:47;11.77;;;9.77;;
19089;SDS011;9677;50.656;13.064;2022-10-31T09:13:25;10.70;;;9.70;;
19089;SDS011;9677;50.656;13.064;2022-10-31T09:16:26;10.77;;;9.67;;
19089;SDS011;9677;50.656;13.064;2022-10-31T09:18:54;11.17;;;10.07;;
19089;SDS011;9677;50.656;13.064;2022-10-31T09:21:23;10.73;;;9.63;;
19089;SDS011;9677;50.656;13.064;2022-10-31T09:23:52;11.17;;;10.00;;
19089;SDS011;9677;50.656;13.064;2022-10-31T09:26:22;10.57;;;9.50;;
19089;SDS011;9677;50.656;13.064;2022-10-31T09:29:17;10.23;;;9.23;;
19089;SDS011;9677;50.656;13.064;2022-10-31T09:31:52;10.97;;;9.87;;
19089;SDS011;9677;50.656;13.064;2022-10-31T09:34:26;10.93;;;9.80;;
19089;SDS011;9677;50.656;13.064;2022-10-31T09:37:02;10.53;;;9.53;;
19089;SDS011;9677;50.656;13.064;2022-10-31T09:39:33;10.30;;;9.30;;
19089;SDS011;9677;50.656;13.064;2022-10-31T09:45:11;10.00;;;9.10;;
19089;SDS011;9677;50.656;13.064;2022-10-31T09:47:51;13.17;;;9.73;;
19089;SDS011;9677;50.656;13.064;2022-10-31T09:50:37;11.00;;;9.23;;
19089;SDS011;9677;50.656;13.064;2022-10-31T09:53:35;10.10;;;9.10;;
19089;SDS011;9677;50.656;13.064;2022-10-31T09:56:10;9.90;;;8.90;;
19089;SDS011;9677;50.656;13.064;2022-10-31T09:58:45;10.50;;;9.50;;
19089;SDS011;9677;50.656;13.064;2022-10-31T10:01:28;10.23;;;9.23;;
19089;SDS011;9677;50.656;13.064;2022-10-31T10:04:11;10.10;;;9.20;;
19089;SDS011;9677;50.656;13.064;2022-10-31T10:07:07;9.80;;;8.90;;
19089;SDS011;9677;50.656;13.064;2022-10-31T10:09:44;10.10;;;9.20;;
19089;SDS011;9677;50.656;13.064;2022-10-31T10:12:36;9.70;;;8.90;;
19089;SDS011;9677;50.656;13.064;2022-10-31T10:15:30;9.90;;;9.00;;
19089;SDS011;9677;50.656;13.064;2022-10-31T10:18:11;9.57;;;8.67;;
19089;SDS011;9677;50.656;13.064;2022-10-31T10:20:55;9.83;;;8.83;;
19089;SDS011;9677;50.656;13.064;2022-10-31T10:23:35;10.30;;;8.90;;
19089;SDS011;9677;50.656;13.064;2022-10-31T10:26:18;10.00;;;9.00;;
19089;SDS011;9677;50.656;13.064;2022-10-31T10:28:49;10.20;;;9.20;;
19089;SDS011;9677;50.656;13.064;2022-10-31T10:31:27;9.73;;;8.83;;
19089;SDS011;9677;50.656;13.064;2022-10-31T10:34:07;11.10;;;9.07;;
19089;SDS011;9677;50.656;13.064;2022-10-31T10:36:46;9.70;;;8.80;;
19089;SDS011;9677;50.656;13.064;2022-10-31T10:39:20;11.50;;;9.17;;
19089;SDS011;9677;50.656;13.064;2022-10-31T10:41:53;9.90;;;8.83;;
19089;SDS011;9677;50.656;13.064;2022-10-31T10:44:43;15.57;;;8.93;;
19089;SDS011;9677;50.656;13.064;2022-10-31T10:47:35;9.60;;;8.70;;
19089;SDS011;9677;50.656;13.064;2022-10-31T10:50:11;9.40;;;8.50;;
19089;SDS011;9677;50.656;13.064;2022-10-31T10:52:50;9.60;;;8.70;;
19089;SDS011;9677;50.656;13.064;2022-10-31T10:55:32;9.77;;;8.77;;
19089;SDS011;9677;50.656;13.064;2022-10-31T10:58:09;11.80;;;9.10;;
19089;SDS011;9677;50.656;13.064;2022-10-31T11:00:39;9.63;;;8.73;;
19089;SDS011;9677;50.656;13.064;2022-10-31T11:03:14;9.60;;;8.63;;
19089;SDS011;9677;50.656;13.064;2022-10-31T11:05:46;9.23;;;8.33;;
19089;SDS011;9677;50.656;13.064;2022-10-31T11:08:24;9.50;;;8.60;;
19089;SDS011;9677;50.656;13.064;2022-10-31T11:10:58;9.63;;;8.63;;
19089;SDS011;9677;50.656;13.064;2022-10-31T11:13:29;9.20;;;8.40;;
19089;SDS011;9677;50.656;13.064;2022-10-31T11:15:59;9.20;;;8.40;;
19089;SDS011;9677;50.656;13.064;2022-10-31T11:18:32;11.43;;;9.03;;
19089;SDS011;9677;50.656;13.064;2022-10-31T11:21:04;9.20;;;8.40;;
19089;SDS011;9677;50.656;13.064;2022-10-31T11:23:45;9.50;;;8.60;;
19089;SDS011;9677;50.656;13.064;2022-10-31T11:26:18;10.10;;;8.60;;
19089;SDS011;9677;50.656;13.064;2022-10-31T11:28:55;9.53;;;8.63;;
19089;SDS011;9677;50.656;13.064;2022-10-31T11:31:25;9.43;;;8.50;;
19089;SDS011;9677;50.656;13.064;2022-10-31T11:33:57;9.63;;;8.73;;
19089;SDS011;9677;50.656;13.064;2022-10-31T11:36:29;9.80;;;8.80;;
19089;SDS011;9677;50.656;13.064;2022-10-31T11:39:02;9.43;;;8.53;;
19089;SDS011;9677;50.656;13.064;2022-10-31T11:41:33;16.03;;;8.90;;
19089;SDS011;9677;50.656;13.064;2022-10-31T11:44:11;9.27;;;8.40;;
19089;SDS011;9677;50.656;13.064;2022-10-31T11:46:44;9.40;;;8.50;;
19089;SDS011;9677;50.656;13.064;2022-10-31T11:49:18;9.60;;;8.70;;
19089;SDS011;9677;50.656;13.064;2022-10-31T11:51:51;9.60;;;8.70;;
19089;SDS011;9677;50.656;13.064;2022-10-31T11:54:23;9.47;;;8.57;;
19089;SDS011;9677;50.656;13.064;2022-10-31T11:56:56;9.87;;;8.87;;
19089;SDS011;9677;50.656;13.064;2022-10-31T11:59:26;9.73;;;8.83;;
19089;SDS011;9677;50.656;13.064;2022-10-31T12:01:57;11.00;;;9.50;;
19089;SDS011;9677;50.656;13.064;2022-10-31T12:04:32;9.80;;;8.90;;
19089;SDS011;9677;50.656;13.064;2022-10-31T12:07:06;10.20;;;9.20;;
19089;SDS011;9677;50.656;13.064;2022-10-31T12:09:36;9.80;;;8.80;;
19089;SDS011;9677;50.656;13.064;2022-10-31T12:12:12;9.97;;;8.97;;
19089;SDS011;9677;50.656;13.064;2022-10-31T12:15:10;9.77;;;8.80;;
19089;SDS011;9677;50.656;13.064;2022-10-31T12:18:12;9.67;;;8.77;;
19089;SDS011;9677;50.656;13.064;2022-10-31T12:21:05;9.37;;;8.47;;
19089;SDS011;9677;50.656;13.064;2022-10-31T12:23:50;9.87;;;8.80;;
19089;SDS011;9677;50.656;13.064;2022-10-31T12:26:32;10.10;;;8.70;;
19089;SDS011;9677;50.656;13.064;2022-10-31T12:29:22;9.83;;;8.77;;
19089;SDS011;9677;50.656;13.064;2022-10-31T12:32:26;10.23;;;8.60;;
19089;SDS011;9677;50.656;13.064;2022-10-31T12:35:16;9.77;;;8.77;;
19089;SDS011;9677;50.656;13.064;2022-10-31T12:38:10;9.40;;;8.50;;
19089;SDS011;9677;50.656;13.064;2022-10-31T12:41:20;9.80;;;8.80;;
19089;SDS011;9677;50.656;13.064;2022-10-31T12:44:04;9.70;;;8.50;;
19089;SDS011;9677;50.656;13.064;2022-10-31T12:46:46;9.30;;;8.43;;
19089;SDS011;9677;50.656;13.064;2022-10-31T12:49:38;9.40;;;8.50;;
19089;SDS011;9677;50.656;13.064;2022-10-31T12:52:21;9.83;;;8.83;;
19089;SDS011;9677;50.656;13.064;2022-10-31T12:55:14;9.50;;;8.60;;
19089;SDS011;9677;50.656;13.064;2022-10-31T12:58:02;9.20;;;8.30;;
19089;SDS011;9677;50.656;13.064;2022-10-31T13:00:37;9.67;;;8.77;;
19089;SDS011;9677;50.656;13.064;2022-10-31T13:03:16;9.60;;;8.70;;
19089;SDS011;9677;50.656;13.064;2022-10-31T13:05:54;9.40;;;8.50;;
19089;SDS011;9677;50.656;13.064;2022-10-31T13:08:28;9.50;;;8.60;;
19089;SDS011;9677;50.656;13.064;2022-10-31T13:11:08;9.50;;;8.60;;
19089;SDS011;9677;50.656;13.064;2022-10-31T13:13:42;9.40;;;8.50;;
19089;SDS011;9677;50.656;13.064;2022-10-31T13:16:19;9.67;;;8.50;;
19089;SDS011;9677;50.656;13.064;2022-10-31T13:18:54;9.43;;;8.53;;
19089;SDS011;9677;50.656;13.064;2022-10-31T13:21:30;9.03;;;8.23;;
19089;SDS011;9677;50.656;13.064;2022-10-31T13:24:07;9.50;;;8.60;;
19089;SDS011;9677;50.656;13.064;2022-10-31T13:26:44;9.97;;;8.97;;
19089;SDS011;9677;50.656;13.064;2022-10-31T13:29:18;10.30;;;8.60;;
19089;SDS011;9677;50.656;13.064;2022-10-31T13:31:57;9.57;;;8.63;;
19089;SDS011;9677;50.656;13.064;2022-10-31T13:34:27;9.60;;;8.70;;
19089;SDS011;9677;50.656;13.064;2022-10-31T13:37:01;10.30;;;9.20;;
19089;SDS011;9677;50.656;13.064;2022-10-31T13:39:47;9.63;;;8.63;;
19089;SDS011;9677;50.656;13.064;2022-10-31T13:42:39;9.90;;;8.90;;
19089;SDS011;9677;50.656;13.064;2022-10-31T13:45:20;9.50;;;8.60;;
19089;SDS011;9677;50.656;13.064;2022-10-31T13:47:58;9.70;;;8.70;;
19089;SDS011;9677;50.656;13.064;2022-10-31T13:50:29;9.67;;;8.67;;
19089;SDS011;9677;50.656;13.064;2022-10-31T13:53:12;9.47;;;8.57;;
19089;SDS011;9677;50.656;13.064;2022-10-31T13:55:47;9.80;;;8.80;;
19089;SDS011;9677;50.656;13.064;2022-10-31T13:58:23;9.50;;;8.60;;
19089;SDS011;9677;50.656;13.064;2022-10-31T14:01:03;9.90;;;8.43;;
19089;SDS011;9677;50.656;13.064;2022-10-31T14:03:45;9.90;;;8.90;;
19089;SDS011;9677;50.656;13.064;2022-10-31T14:06:40;9.80;;;8.80;;
19089;SDS011;9677;50.656;13.064;2022-10-31T14:09:20;9.50;;;8.60;;
19089;SDS011;9677;50.656;13.064;2022-10-31T14:11:57;9.40;;;8.50;;
19089;SDS011;9677;50.656;13.064;2022-10-31T14:14:35;9.40;;;8.50;;
19089;SDS011;9677;50.656;13.064;2022-10-31T14:17:17;9.77;;;8.77;;
19089;SDS011;9677;50.656;13.064;2022-10-31T14:20:02;10.30;;;8.73;;
19089;SDS011;9677;50.656;13.064;2022-10-31T14:26:16;9.10;;;8.30;;
19089;SDS011;9677;50.656;13.064;2022-10-31T14:29:23;9.47;;;8.50;;
19089;SDS011;9677;50.656;13.064;2022-10-31T14:31:57;9.50;;;8.50;;
19089;SDS011;9677;50.656;13.064;2022-10-31T14:34:34;15.23;;;8.50;;
19089;SDS011;9677;50.656;13.064;2022-10-31T14:37:19;9.30;;;8.40;;
19089;SDS011;9677;50.656;13.064;2022-10-31T14:43:27;9.10;;;8.20;;
19089;SDS011;9677;50.656;13.064;2022-10-31T14:46:19;9.90;;;8.90;;
19089;SDS011;9677;50.656;13.064;2022-10-31T14:49:16;9.70;;;8.80;;
19089;SDS011;9677;50.656;13.064;2022-10-31T14:52:01;9.77;;;8.87;;
19089;SDS011;9677;50.656;13.064;2022-10-31T14:54:35;9.40;;;8.50;;
19089;SDS011;9677;50.656;13.064;2022-10-31T14:57:13;9.10;;;8.20;;
19089;SDS011;9677;50.656;13.064;2022-10-31T14:59:47;9.43;;;8.53;;
19089;SDS011;9677;50.656;13.064;2022-10-31T15:02:29;9.53;;;8.63;;
19089;SDS011;9677;50.656;13.064;2022-10-31T15:05:07;9.70;;;8.70;;
19089;SDS011;9677;50.656;13.064;2022-10-31T15:07:47;9.47;;;8.50;;
19089;SDS011;9677;50.656;13.064;2022-10-31T15:10:20;9.43;;;8.53;;
19089;SDS011;9677;50.656;13.064;2022-10-31T15:12:52;9.27;;;8.37;;
19089;SDS011;9677;50.656;13.064;2022-10-31T15:15:21;9.80;;;8.90;;
19089;SDS011;9677;50.656;13.064;2022-10-31T15:17:53;10.23;;;8.47;;
19089;SDS011;9677;50.656;13.064;2022-10-31T15:20:28;9.70;;;8.70;;
19089;SDS011;9677;50.656;13.064;2022-10-31T15:23:01;9.63;;;8.73;;
19089;SDS011;9677;50.656;13.064;2022-10-31T15:25:32;9.87;;;8.97;;
19089;SDS011;9677;50.656;13.064;2022-10-31T15:28:11;10.03;;;8.90;;
19089;SDS011;9677;50.656;13.064;2022-10-31T15:30:49;10.30;;;8.83;;
19089;SDS011;9677;50.656;13.064;2022-10-31T15:33:20;9.37;;;8.43;;
19089;SDS011;9677;50.656;13.064;2022-10-31T15:35:56;10.47;;;9.10;;
19089;SDS011;9677;50.656;13.064;2022-10-31T15:38:26;10.40;;;9.40;;
19089;SDS011;9677;50.656;13.064;2022-10-31T15:40:57;9.60;;;8.70;;
19089;SDS011;9677;50.656;13.064;2022-10-31T15:43:32;10.37;;;9.30;;
19089;SDS011;9677;50.656;13.064;2022-10-31T15:46:06;10.00;;;9.00;;
19089;SDS011;9677;50.656;13.064;2022-10-31T15:48:36;10.77;;;9.07;;